Time;durP1;ratioP1;P1;durP2;ratioP2;P2;SDS_P1;SDS_P2;PMS_P1;PMS_P2;Temp;Humidity;BMP_temperature;BMP_pressure;BME280_temperature;BME280_humidity;BME280_pressure;Samples;Min_cycle;Max_cycle;Signal;HPM_P1;HPM_P2
2022/06/10 00:01:05;;;;;;;16.37;13.00;;;;;;;17.55;100.00;99578.16;5126249;22;21681;-74
2022/06/10 00:03:32;;;;;;;17.07;12.70;;;;;;;17.65;100.00;99575.88;5126186;22;20241;-72
2022/06/10 00:06:01;;;;;;;15.87;12.30;;;;;;;17.55;100.00;99572.78;5122154;22;20283;-74
2022/06/10 00:08:33;;;;;;;16.37;12.33;;;;;;;17.51;100.00;99576.94;5100842;22;20280;-73
2022/06/10 00:11:00;;;;;;;17.10;13.03;;;;;;;17.42;100.00;99579.06;5123662;22;22520;-72
2022/06/10 00:13:30;;;;;;;18.03;12.33;;;;;;;17.35;100.00;99582.78;5114007;22;20205;-73
2022/06/10 00:15:57;;;;;;;16.37;12.27;;;;;;;17.44;100.00;99581.50;5110977;22;20317;-75
2022/06/10 00:18:25;;;;;;;18.77;12.47;;;;;;;17.46;100.00;99584.81;5127229;22;20303;-72
2022/06/10 00:20:51;;;;;;;16.63;12.60;;;;;;;17.38;100.00;99590.44;5110984;22;20264;-74
2022/06/10 00:23:19;;;;;;;18.20;12.57;;;;;;;17.37;100.00;99581.56;5120959;22;21790;-73
2022/06/10 00:25:46;;;;;;;14.40;12.53;;;;;;;17.41;100.00;99587.31;5129272;22;20205;-73
2022/06/10 00:28:13;;;;;;;15.90;12.60;;;;;;;17.42;100.00;99587.13;5123586;22;20204;-73
2022/06/10 00:30:39;;;;;;;17.23;12.40;;;;;;;17.36;100.00;99596.00;5123251;22;20198;-74
2022/06/10 00:33:07;;;;;;;15.20;12.23;;;;;;;17.36;100.00;99595.19;5143519;22;20204;-74
2022/06/10 00:35:34;;;;;;;17.43;12.77;;;;;;;17.30;100.00;99605.75;5135398;22;20198;-73
2022/06/10 00:38:02;;;;;;;22.73;13.70;;;;;;;17.40;100.00;99605.31;5129622;22;21505;-73
2022/06/10 00:40:35;;;;;;;17.17;12.50;;;;;;;17.34;100.00;99616.09;5130018;22;20204;-73
2022/06/10 00:43:01;;;;;;;19.23;13.30;;;;;;;17.33;100.00;99619.84;5142235;22;20229;-73
2022/06/10 00:46:13;;;;;;;16.47;12.53;;;;;;;17.33;100.00;99622.53;5138118;22;20205;-72
2022/06/10 00:48:47;;;;;;;20.63;13.33;;;;;;;17.42;100.00;99634.69;5053995;23;20201;-74
2022/06/10 00:51:24;;;;;;;17.80;13.40;;;;;;;17.39;100.00;99632.41;5126089;22;20209;-72
2022/06/10 00:54:43;;;;;;;20.03;13.10;;;;;;;17.39;100.00;99635.94;5109198;22;20548;-72
2022/06/10 00:57:19;;;;;;;17.90;13.07;;;;;;;17.37;100.00;99639.88;5089491;22;20205;-72
2022/06/10 01:00:04;;;;;;;16.57;12.17;;;;;;;17.41;100.00;99646.50;5111908;22;20217;-72
2022/06/10 01:02:32;;;;;;;21.20;13.07;;;;;;;17.43;100.00;99642.56;5108587;22;20692;-74
2022/06/10 01:05:00;;;;;;;18.67;12.90;;;;;;;17.45;100.00;99640.47;5128824;22;20214;-73
2022/06/10 01:07:31;;;;;;;19.50;13.23;;;;;;;17.45;100.00;99637.78;5111708;22;22225;-73
2022/06/10 01:10:00;;;;;;;22.33;13.53;;;;;;;17.41;100.00;99641.94;5105084;22;20236;-72
2022/06/10 01:12:35;;;;;;;18.53;12.60;;;;;;;17.25;100.00;99637.81;5122891;22;20281;-73
2022/06/10 01:15:23;;;;;;;15.90;13.33;;;;;;;17.26;100.00;99633.28;5126249;22;20216;-71
2022/06/10 01:17:56;;;;;;;17.50;13.13;;;;;;;17.30;100.00;99635.34;5116782;22;20202;-73
2022/06/10 01:20:54;;;;;;;15.60;12.77;;;;;;;17.28;100.00;99636.59;5109609;22;20252;-73
2022/06/10 01:23:54;;;;;;;17.60;12.97;;;;;;;17.25;100.00;99645.88;5138530;22;20206;-76
2022/06/10 01:26:32;;;;;;;20.60;14.97;;;;;;;17.01;100.00;99638.44;5134379;22;21806;-73
2022/06/10 01:29:19;;;;;;;20.33;15.50;;;;;;;17.07;100.00;99638.44;5119795;22;21542;-73
2022/06/10 01:32:15;;;;;;;22.03;14.70;;;;;;;17.15;100.00;99645.47;5150074;22;20239;-72
2022/06/10 01:34:51;;;;;;;17.90;14.17;;;;;;;17.16;100.00;99641.78;5094837;22;21185;-74
2022/06/10 01:37:25;;;;;;;18.60;14.80;;;;;;;17.17;100.00;99643.41;5129707;22;22012;-73
2022/06/10 01:40:18;;;;;;;20.27;14.43;;;;;;;17.23;100.00;99645.28;5147496;22;20202;-73
2022/06/10 01:43:03;;;;;;;20.87;15.07;;;;;;;17.16;100.00;99644.47;5134169;22;20212;-75
2022/06/10 01:45:48;;;;;;;20.40;14.53;;;;;;;17.08;100.00;99644.66;5130991;22;20457;-74
2022/06/10 01:48:20;;;;;;;18.57;14.83;;;;;;;17.05;100.00;99653.97;5133734;22;20201;-73
2022/06/10 01:50:55;;;;;;;19.10;15.07;;;;;;;17.08;100.00;99656.22;5120648;22;20203;-73
2022/06/10 01:53:32;;;;;;;21.80;15.37;;;;;;;17.07;100.00;99664.50;5127042;22;20218;-71
2022/06/10 01:56:07;;;;;;;18.80;14.27;;;;;;;17.08;100.00;99669.66;5132321;22;20208;-72
2022/06/10 01:58:42;;;;;;;18.63;14.97;;;;;;;17.03;100.00;99666.78;5113239;22;20296;-72
2022/06/10 02:01:20;;;;;;;20.37;14.20;;;;;;;17.09;100.00;99678.56;5100093;22;20201;-73
2022/06/10 02:03:52;;;;;;;23.50;15.43;;;;;;;16.99;100.00;99673.59;5135826;22;20347;-72
2022/06/10 02:06:27;;;;;;;19.13;14.47;;;;;;;17.05;100.00;99680.84;5112562;22;20217;-73
2022/06/10 02:09:01;;;;;;;22.13;14.87;;;;;;;17.12;100.00;99682.72;5130522;22;23016;-74
2022/06/10 02:11:28;;;;;;;18.53;14.17;;;;;;;17.21;100.00;99697.63;5114253;22;20206;-71
2022/06/10 02:14:00;;;;;;;21.43;15.33;;;;;;;17.17;100.00;99701.75;5113237;22;20202;-73
2022/06/10 02:16:30;;;;;;;23.63;15.80;;;;;;;16.99;100.00;99707.72;5129370;22;20209;-72
2022/06/10 02:19:07;;;;;;;22.13;14.97;;;;;;;16.96;100.00;99702.75;5131321;22;20283;-74
2022/06/10 02:22:01;;;;;;;21.67;15.60;;;;;;;16.75;100.00;99701.84;5137421;22;21137;-72
2022/06/10 02:24:40;;;;;;;23.10;16.13;;;;;;;16.66;100.00;99697.69;5150078;22;21802;-74
2022/06/10 02:27:15;;;;;;;19.47;15.50;;;;;;;16.61;100.00;99698.28;5118261;22;20198;-73
2022/06/10 02:29:58;;;;;;;22.23;15.53;;;;;;;16.59;100.00;99699.53;5110097;22;20223;-72
2022/06/10 02:32:26;;;;;;;23.83;15.77;;;;;;;16.54;100.00;99694.75;5147688;22;23100;-72
2022/06/10 02:34:54;;;;;;;22.33;17.43;;;;;;;16.38;100.00;99690.56;5147004;22;21582;-72
2022/06/10 02:37:40;;;;;;;30.40;17.87;;;;;;;16.37;100.00;99694.31;5148259;22;20612;-73
2022/06/10 02:40:18;;;;;;;23.00;16.67;;;;;;;16.38;100.00;99695.94;5130667;22;21363;-70
2022/06/10 02:43:12;;;;;;;24.77;17.53;;;;;;;16.33;100.00;99692.22;5118108;22;20209;-60
2022/06/10 02:45:44;;;;;;;26.57;17.40;;;;;;;16.22;100.00;99702.50;5151003;22;21033;-57
2022/06/10 02:48:20;;;;;;;26.93;18.67;;;;;;;16.18;100.00;99706.63;5141350;22;20220;-60
2022/06/10 02:50:47;;;;;;;28.83;19.87;;;;;;;16.15;100.00;99716.91;5160167;22;20817;-58
2022/06/10 02:53:13;;;;;;;24.27;18.43;;;;;;;16.10;100.00;99714.00;5137082;22;21635;-60
2022/06/10 02:55:40;;;;;;;22.60;18.23;;;;;;;16.17;100.00;99714.84;5136651;22;21583;-57
2022/06/10 03:01:25;;;;;;;27.63;17.63;;;;;;;16.03;100.00;99727.38;5168148;22;20202;-59
2022/06/10 03:04:14;;;;;;;22.23;16.17;;;;;;;16.07;100.00;99725.16;5113869;22;20258;-64
2022/06/10 03:06:50;;;;;;;22.83;16.63;;;;;;;16.08;100.00;99729.47;5122132;22;21080;-74
2022/06/10 03:09:21;;;;;;;22.33;14.27;;;;;;;16.16;100.00;99724.78;5135636;22;20722;-72
2022/06/10 03:12:06;;;;;;;19.10;14.93;;;;;;;16.00;100.00;99733.97;5097175;22;20211;-72
2022/06/10 03:14:48;;;;;;;21.20;14.53;;;;;;;16.08;100.00;99737.53;5099255;22;20371;-73
2022/06/10 03:17:43;;;;;;;24.80;14.70;;;;;;;16.03;100.00;99744.31;5125313;22;21153;-74
2022/06/10 03:20:22;;;;;;;18.13;13.37;;;;;;;16.17;100.00;99747.06;5103772;22;21889;-72
2022/06/10 03:23:07;;;;;;;17.67;12.77;;;;;;;16.10;100.00;99748.91;5071443;22;20202;-72
2022/06/10 03:25:50;;;;;;;19.13;13.93;;;;;;;16.06;100.00;99755.69;5102686;22;20712;-72
2022/06/10 03:28:32;;;;;;;21.93;14.03;;;;;;;16.02;100.00;99764.13;5095331;22;20391;-72
2022/06/10 03:31:04;;;;;;;21.60;14.00;;;;;;;16.08;100.00;99775.09;5106925;22;20207;-72
2022/06/10 03:33:34;;;;;;;21.17;13.07;;;;;;;16.25;100.00;99773.78;5098674;22;21742;-73
2022/06/10 03:36:08;;;;;;;18.30;12.80;;;;;;;16.28;100.00;99784.09;5076187;22;21281;-72
2022/06/10 03:38:40;;;;;;;16.33;12.17;;;;;;;16.28;100.00;99780.59;5106745;22;20704;-74
2022/06/10 03:41:07;;;;;;;15.63;11.90;;;;;;;16.29;100.00;99782.25;5112429;22;20203;-74
2022/06/10 03:43:39;;;;;;;22.17;11.93;;;;;;;16.53;100.00;99787.13;5086930;22;20218;-72
2022/06/10 03:46:09;;;;;;;15.93;11.67;;;;;;;16.60;100.00;99784.44;5084145;22;22136;-72
2022/06/10 03:48:39;;;;;;;15.27;11.80;;;;;;;16.76;100.00;99794.03;5110605;22;20575;-71
2022/06/10 03:51:07;;;;;;;16.50;11.23;;;;;;;16.87;100.00;99788.94;5108594;22;20211;-70
2022/06/10 03:53:33;;;;;;;15.80;11.77;;;;;;;16.94;100.00;99802.38;5088212;22;20672;-71
2022/06/10 03:56:07;;;;;;;13.53;10.57;;;;;;;17.05;100.00;99804.50;5108028;22;21131;-71
2022/06/10 03:58:33;;;;;;;12.43;10.07;;;;;;;17.19;100.00;99809.91;5105749;22;20376;-70
2022/06/10 04:01:00;;;;;;;13.87;10.60;;;;;;;17.45;100.00;99809.13;5105203;22;20741;-70
2022/06/10 04:03:27;;;;;;;15.97;10.67;;;;;;;17.44;100.00;99812.84;5081790;22;22312;-71
2022/06/10 04:05:53;;;;;;;13.30;9.60;;;;;;;17.56;100.00;99810.34;5087720;22;22886;-69
2022/06/10 04:08:40;;;;;;;11.40;9.00;;;;;;;17.62;100.00;99812.25;5106979;22;21234;-72
2022/06/10 04:11:06;;;;;;;17.03;10.27;;;;;;;17.56;100.00;99813.91;5105408;22;21174;-71
2022/06/10 04:13:33;;;;;;;17.13;10.50;;;;;;;17.42;100.00;99806.81;5108205;22;23111;-71
2022/06/10 04:15:59;;;;;;;14.87;10.00;;;;;;;17.71;100.00;99819.91;5120066;22;21727;-70
2022/06/10 04:18:26;;;;;;;15.07;9.77;;;;;;;17.84;100.00;99823.66;5107430;22;21635;-73
2022/06/10 04:20:53;;;;;;;13.70;10.47;;;;;;;17.81;100.00;99824.06;5110146;22;23555;-72
2022/06/10 04:23:19;;;;;;;15.30;10.53;;;;;;;18.01;100.00;99824.91;5129384;22;20233;-70
2022/06/10 04:25:46;;;;;;;15.07;10.03;;;;;;;18.30;100.00;99830.84;5109617;22;20625;-73
2022/06/10 04:28:13;;;;;;;14.53;9.80;;;;;;;18.43;100.00;99833.53;5100913;22;20656;-72
2022/06/10 04:30:46;;;;;;;12.20;9.27;;;;;;;18.43;100.00;99828.13;5107701;22;21624;-70
2022/06/10 04:33:13;;;;;;;16.43;10.03;;;;;;;18.53;100.00;99827.69;5102916;22;20211;-70
2022/06/10 04:35:41;;;;;;;16.23;10.07;;;;;;;18.88;100.00;99836.28;5089678;22;21841;-72
2022/06/10 04:38:08;;;;;;;21.07;10.20;;;;;;;19.03;100.00;99832.50;5107648;22;20199;-70
2022/06/10 04:40:37;;;;;;;11.37;9.33;;;;;;;19.19;100.00;99837.38;5100116;22;22322;-71
2022/06/10 04:43:05;;;;;;;15.13;10.57;;;;;;;19.19;99.73;99832.00;5107673;22;20257;-73
2022/06/10 04:45:35;;;;;;;13.23;10.53;;;;;;;18.93;100.00;99839.19;5079374;22;20207;-71
2022/06/10 04:48:01;;;;;;;15.40;11.33;;;;;;;18.78;100.00;99838.63;5116242;22;20416;-74
2022/06/10 04:50:29;;;;;;;16.97;12.77;;;;;;;18.76;100.00;99848.78;5097246;22;20223;-71
2022/06/10 04:52:56;;;;;;;18.97;12.93;;;;;;;18.72;100.00;99851.03;5108022;22;20288;-72
2022/06/10 04:55:25;;;;;;;16.80;12.93;;;;;;;18.68;100.00;99857.06;5103812;22;20997;-72
2022/06/10 04:57:54;;;;;;;16.97;12.90;;;;;;;18.63;100.00;99856.88;5123439;22;21578;-75
2022/06/10 05:00:24;;;;;;;16.23;13.33;;;;;;;18.61;100.00;99853.56;5087681;22;20202;-71
2022/06/10 05:02:51;;;;;;;15.33;12.87;;;;;;;18.60;100.00;99860.00;5083480;22;20209;-72
2022/06/10 05:05:18;;;;;;;21.40;13.73;;;;;;;18.55;100.00;99856.06;5104491;22;20347;-74
2022/06/10 05:07:44;;;;;;;20.20;13.13;;;;;;;18.54;100.00;99851.75;5114240;22;21606;-71
2022/06/10 05:10:12;;;;;;;16.37;12.70;;;;;;;18.82;100.00;99860.59;5107314;22;20198;-74
2022/06/10 05:12:39;;;;;;;17.37;11.97;;;;;;;18.90;100.00;99863.06;5119237;22;20208;-71
2022/06/10 05:15:06;;;;;;;16.20;11.60;;;;;;;19.22;98.92;99866.63;5104894;22;20299;-71
2022/06/10 05:17:33;;;;;;;14.73;11.43;;;;;;;19.34;96.95;99872.19;5099211;22;21157;-71
2022/06/10 05:19:59;;;;;;;16.40;11.73;;;;;;;19.28;98.03;99873.88;5110509;22;20200;-71
2022/06/10 05:22:25;;;;;;;14.53;11.30;;;;;;;19.75;94.94;99879.00;5106780;22;22138;-71
2022/06/10 05:24:52;;;;;;;19.30;9.73;;;;;;;19.82;93.25;99885.19;5102457;22;23310;-75
2022/06/10 05:27:18;;;;;;;14.30;9.57;;;;;;;20.32;91.38;99890.59;5109231;22;20280;-71
2022/06/10 05:29:45;;;;;;;14.23;10.63;;;;;;;20.83;87.75;99896.75;5084342;22;21287;-68
2022/06/10 05:32:11;;;;;;;14.10;9.70;;;;;;;21.20;87.76;99899.41;5098488;22;22308;-70
2022/06/10 05:34:48;;;;;;;11.87;8.90;;;;;;;21.96;84.38;99906.06;5120808;22;20428;-71
2022/06/10 05:37:21;;;;;;;12.93;9.83;;;;;;;21.82;81.74;99908.16;5112030;22;20597;-70
2022/06/10 05:39:48;;;;;;;14.90;9.10;;;;;;;22.29;80.68;99908.25;5089640;22;21474;-75
2022/06/10 05:42:15;;;;;;;12.53;10.33;;;;;;;21.97;80.33;99913.13;5127718;22;20214;-70
2022/06/10 05:44:47;;;;;;;18.33;9.73;;;;;;;22.33;78.89;99912.13;5106346;22;21487;-72
2022/06/10 05:47:18;;;;;;;11.17;9.17;;;;;;;21.92;79.38;99921.97;5081077;22;26457;-71
2022/06/10 05:49:46;;;;;;;13.07;8.83;;;;;;;21.84;80.37;99926.88;5099898;22;20350;-71
2022/06/10 05:52:15;;;;;;;10.17;7.80;;;;;;;22.50;77.35;99923.13;5093361;22;25643;-73
2022/06/10 05:54:43;;;;;;;10.17;8.00;;;;;;;22.48;77.03;99924.41;5098734;22;20203;-70
2022/06/10 05:57:10;;;;;;;11.53;7.20;;;;;;;23.26;72.06;99927.75;5101430;22;20206;-72
2022/06/10 05:59:37;;;;;;;8.07;6.47;;;;;;;23.64;70.53;99937.16;5108586;22;20200;-70
2022/06/10 06:02:05;;;;;;;10.97;6.73;;;;;;;23.91;67.76;99937.41;5109670;22;20212;-71
2022/06/10 06:04:32;;;;;;;9.20;6.97;;;;;;;23.69;68.30;99942.69;5103417;22;20206;-71
2022/06/10 06:06:59;;;;;;;9.97;6.50;;;;;;;24.06;67.58;99937.66;5087006;22;25643;-71
2022/06/10 06:09:26;;;;;;;7.00;5.83;;;;;;;24.96;63.58;99948.53;5090339;22;22313;-69
2022/06/10 06:11:56;;;;;;;9.73;6.30;;;;;;;25.60;60.82;99954.25;5075118;22;20309;-71
2022/06/10 06:14:25;;;;;;;9.70;6.23;;;;;;;25.33;60.70;99950.69;5101646;22;20285;-70
2022/06/10 06:16:58;;;;;;;8.33;5.43;;;;;;;25.83;58.66;99955.03;5105492;22;20199;-71
2022/06/10 06:19:26;;;;;;;10.13;5.13;;;;;;;26.37;56.61;99960.44;5130823;22;20265;-71
2022/06/10 06:21:52;;;;;;;7.50;6.13;;;;;;;25.35;59.82;99962.97;5103538;22;20462;-73
2022/06/10 06:24:19;;;;;;;11.67;5.73;;;;;;;25.24;60.77;99964.75;5100610;22;20206;-73
2022/06/10 06:26:46;;;;;;;8.07;6.20;;;;;;;25.48;60.26;99967.22;5105245;22;21100;-71
2022/06/10 06:29:12;;;;;;;9.80;5.83;;;;;;;24.85;62.15;99961.22;5102814;22;20209;-71
2022/06/10 06:31:39;;;;;;;9.40;6.30;;;;;;;25.01;62.47;99975.84;5095402;22;20199;-73
2022/06/10 06:34:06;;;;;;;14.77;6.13;;;;;;;24.60;65.01;99969.81;5109491;22;20281;-73
2022/06/10 06:36:46;;;;;;;10.53;6.80;;;;;;;24.76;64.12;99973.59;5101755;22;20319;-73
2022/06/10 06:39:14;;;;;;;9.43;5.40;;;;;;;25.35;61.43;99983.94;5086521;22;20207;-76
2022/06/10 06:41:47;;;;;;;7.40;5.17;;;;;;;25.42;60.41;99979.13;5101639;22;20202;-73
2022/06/10 06:44:13;;;;;;;10.53;5.67;;;;;;;26.15;58.89;99987.00;5100252;22;20654;-73
2022/06/10 06:46:42;;;;;;;8.97;5.50;;;;;;;27.38;54.47;99998.78;5109509;22;21419;-73
2022/06/10 06:49:15;;;;;;;9.43;5.50;;;;;;;26.69;55.12;99997.81;5099950;22;20516;-71
2022/06/10 06:51:42;;;;;;;7.67;4.83;;;;;;;26.43;54.58;99994.84;5119242;22;21023;-71
2022/06/10 06:54:09;;;;;;;6.17;4.73;;;;;;;27.00;53.49;99992.56;5114208;22;21130;-72
2022/06/10 06:56:36;;;;;;;7.47;4.73;;;;;;;28.28;49.42;100003.91;5109965;22;20253;-73
2022/06/10 06:59:04;;;;;;;7.03;4.60;;;;;;;27.36;52.76;99999.03;5112256;22;21547;-72
2022/06/10 07:01:31;;;;;;;8.90;5.20;;;;;;;27.69;51.60;100005.97;5081095;22;20211;-72
2022/06/10 07:03:58;;;;;;;10.40;4.70;;;;;;;27.72;52.78;100005.47;5116832;22;20210;-73
2022/06/10 07:06:24;;;;;;;8.60;4.60;;;;;;;28.20;50.37;100008.84;5132801;22;20680;-72
2022/06/10 07:08:51;;;;;;;4.60;4.03;;;;;;;29.19;45.30;100013.97;5110042;22;21421;-71
2022/06/10 07:11:18;;;;;;;5.53;3.80;;;;;;;29.57;45.13;100005.31;5108136;22;20225;-72
2022/06/10 07:13:44;;;;;;;6.83;4.20;;;;;;;28.12;47.07;100000.34;5125970;22;20592;-70
2022/06/10 07:16:11;;;;;;;10.17;3.97;;;;;;;27.58;49.74;99998.84;5114438;22;20213;-70
2022/06/10 07:18:38;;;;;;;5.33;4.10;;;;;;;26.95;51.89;99996.09;5097149;22;20221;-73
2022/06/10 07:21:04;;;;;;;7.13;4.47;;;;;;;26.29;55.33;99999.13;5104235;22;20300;-71
2022/06/10 07:23:31;;;;;;;7.53;4.30;;;;;;;25.95;55.88;99988.44;5118197;22;20244;-73
2022/06/10 07:25:59;;;;;;;10.40;5.07;;;;;;;25.33;59.35;99975.19;5109133;22;20209;-73
2022/06/10 07:28:26;;;;;;;7.00;4.63;;;;;;;25.69;59.12;99990.06;5085131;22;20331;-55
2022/06/10 07:30:52;;;;;;;5.17;4.27;;;;;;;25.85;58.85;99993.78;5109480;22;20212;-56
2022/06/10 07:33:19;;;;;;;8.00;4.47;;;;;;;25.73;57.37;99995.81;5122586;22;20269;-59
2022/06/10 07:35:45;;;;;;;6.63;4.60;;;;;;;25.58;58.57;99991.84;5125096;22;20327;-55
2022/06/10 07:38:12;;;;;;;6.17;3.93;;;;;;;25.52;59.18;100000.22;5101990;22;20214;-57
2022/06/10 07:43:40;;;;;;;8.90;3.90;;;;;;;25.75;58.13;100001.84;5127300;22;20221;-54
2022/06/10 07:46:08;;;;;;;7.93;4.50;;;;;;;25.48;59.53;100002.63;5108292;22;20670;-56
2022/06/10 07:48:35;;;;;;;7.20;4.10;;;;;;;25.34;58.02;99999.47;5093153;22;20206;-55
2022/06/10 07:51:02;;;;;;;6.10;4.07;;;;;;;25.17;59.81;100004.94;5118173;22;20206;-55
2022/06/10 07:53:30;;;;;;;7.37;4.20;;;;;;;25.44;58.46;100006.94;5149406;22;20213;-71
2022/06/10 07:55:58;;;;;;;6.53;4.30;;;;;;;25.58;58.71;100019.09;5105005;22;20636;-72
2022/06/10 07:58:25;;;;;;;5.17;4.23;;;;;;;25.54;58.42;100017.94;5105717;22;20209;-70
2022/06/10 08:00:51;;;;;;;7.37;3.80;;;;;;;24.96;59.98;100012.00;5130691;22;22158;-55
2022/06/10 08:03:18;;;;;;;4.87;3.70;;;;;;;25.13;59.29;100009.22;5121397;22;21947;-67
2022/06/10 08:05:45;;;;;;;6.20;3.50;;;;;;;25.88;56.66;100026.00;5112625;22;21682;-70
2022/06/10 08:08:15;;;;;;;4.83;4.00;;;;;;;26.07;56.38;100024.56;5108298;22;20930;-69
2022/06/10 08:10:41;;;;;;;4.30;3.57;;;;;;;25.66;57.04;100017.81;5107902;23;21198;-68
2022/06/10 08:13:08;;;;;;;9.60;4.20;;;;;;;25.51;58.62;100026.63;5106856;22;20435;-70
2022/06/10 08:15:36;;;;;;;5.30;3.60;;;;;;;25.06;59.13;100020.31;5099616;22;20589;-72
2022/06/10 08:18:04;;;;;;;4.93;3.47;;;;;;;24.94;58.50;100026.94;5123156;22;20740;-71
2022/06/10 08:23:21;;;;;;;5.07;2.90;;;;;;;24.99;57.24;100029.72;5141540;22;20202;-51
2022/06/10 08:25:49;;;;;;;5.23;2.80;;;;;;;25.43;57.20;100029.81;5116110;22;20327;-54
2022/06/10 08:28:16;;;;;;;5.57;2.80;;;;;;;25.39;56.26;100028.66;5115665;22;20202;-54
2022/06/10 08:30:43;;;;;;;3.70;2.63;;;;;;;25.80;53.54;100040.88;5124976;22;22524;-49
2022/06/10 08:33:11;;;;;;;4.00;2.90;;;;;;;26.10;52.72;100043.13;5137951;22;20210;-55
2022/06/10 08:35:39;;;;;;;5.67;2.50;;;;;;;25.94;52.87;100052.22;5121834;22;21441;-52
2022/06/10 08:38:11;;;;;;;3.60;2.57;;;;;;;25.85;52.20;100049.13;5168253;22;20392;-54
2022/06/10 08:41:09;;;;;;;3.47;2.80;;;;;;;25.76;53.37;100044.38;5191436;22;20215;-53
2022/06/10 08:44:05;;;;;;;5.63;2.80;;;;;;;25.73;54.16;100048.44;5216916;22;20204;-51
2022/06/10 08:47:25;;;;;;;7.03;2.93;;;;;;;25.30;54.18;100041.06;5130233;22;25478;-53
2022/06/10 08:50:04;;;;;;;5.50;2.97;;;;;;;25.46;56.10;100040.19;5145056;22;21387;-55
2022/06/10 08:52:41;;;;;;;4.67;2.87;;;;;;;25.63;55.08;100051.84;5161576;22;20227;-54
2022/06/10 08:56:07;;;;;;;9.23;3.80;;;;;;;25.74;53.97;100058.25;5220344;22;20206;-57
2022/06/10 08:59:22;;;;;;;5.30;3.37;;;;;;;24.93;57.93;100052.50;5082418;23;22771;-52
2022/06/10 09:02:17;;;;;;;3.63;3.27;;;;;;;24.60;59.28;100054.97;5121899;22;22708;-56
2022/06/10 09:04:56;;;;;;;4.80;3.30;;;;;;;24.02;60.59;100047.94;5148184;22;20507;-53
2022/06/10 09:07:51;;;;;;;5.53;3.30;;;;;;;23.74;62.15;100062.34;5103121;22;20204;-54
2022/06/10 09:10:31;;;;;;;7.23;3.30;;;;;;;23.87;62.52;100059.34;5138874;22;20198;-55
2022/06/10 09:13:21;;;;;;;3.87;2.93;;;;;;;24.27;60.52;100066.63;5110300;22;20266;-52
2022/06/10 09:16:06;;;;;;;4.50;2.87;;;;;;;24.16;60.04;100064.78;5116227;22;20327;-53
2022/06/10 09:19:07;;;;;;;3.07;2.37;;;;;;;24.39;57.30;100080.16;5144602;22;21976;-56
2022/06/10 09:22:02;;;;;;;3.60;2.50;;;;;;;24.28;56.87;100081.88;5136101;22;20707;-55
2022/06/10 09:24:35;;;;;;;2.90;2.13;;;;;;;24.44;56.39;100094.69;5125317;22;20203;-57
2022/06/10 09:27:23;;;;;;;3.97;2.40;;;;;;;24.49;57.40;100077.66;5103386;22;20260;-54
2022/06/10 09:29:49;;;;;;;3.90;2.87;;;;;;;24.73;57.42;100075.59;5112139;22;21622;-56
2022/06/10 09:32:47;;;;;;;6.17;3.10;;;;;;;24.36;60.19;100080.66;5102524;22;20210;-54
2022/06/10 09:35:39;;;;;;;4.50;2.97;;;;;;;24.50;59.69;100098.34;5098798;22;20229;-55
2022/06/10 09:38:17;;;;;;;4.40;2.70;;;;;;;24.51;59.36;100091.81;5106181;22;20210;-57
2022/06/10 09:41:13;;;;;;;3.97;2.80;;;;;;;24.17;59.68;100094.44;5106839;22;20392;-56
2022/06/10 09:43:50;;;;;;;4.00;2.70;;;;;;;24.22;58.79;100099.97;5104651;22;20251;-54
2022/06/10 09:46:28;;;;;;;6.67;3.00;;;;;;;24.22;59.29;100091.81;5119351;22;20283;-58
2022/06/10 09:48:58;;;;;;;4.30;3.00;;;;;;;24.28;60.27;100095.47;5116668;22;20214;-54
2022/06/10 09:51:37;;;;;;;5.17;2.87;;;;;;;24.05;61.14;100090.16;5118899;22;20209;-52
2022/06/10 09:54:34;;;;;;;4.77;3.00;;;;;;;23.69;63.29;100102.97;5105816;22;20520;-55
2022/06/10 09:57:34;;;;;;;5.07;3.00;;;;;;;23.58;63.08;100089.19;5156328;22;20240;-56
2022/06/10 10:00:18;;;;;;;4.17;3.40;;;;;;;23.80;62.18;100100.25;5124818;22;20724;-55
2022/06/10 10:03:15;;;;;;;4.20;3.10;;;;;;;23.93;62.00;100099.16;5101381;22;20285;-53
2022/06/10 10:06:04;;;;;;;7.20;4.67;;;;;;;24.01;63.02;100104.19;5113882;22;21605;-54
2022/06/10 10:08:46;;;;;;;3.37;3.07;;;;;;;24.12;62.66;100105.25;5137197;22;20387;-58
2022/06/10 10:11:36;;;;;;;6.00;2.93;;;;;;;24.11;61.43;100100.03;5111801;22;21465;-56
2022/06/10 10:14:34;;;;;;;4.17;2.70;;;;;;;24.07;60.56;100116.03;5091139;22;20209;-55
2022/06/10 10:17:38;;;;;;;3.53;2.67;;;;;;;24.12;58.14;100118.00;5095097;22;21584;-55
2022/06/10 10:20:26;;;;;;;3.67;2.70;;;;;;;24.51;58.07;100112.75;5118578;22;21673;-56
2022/06/10 10:23:13;;;;;;;3.33;2.50;;;;;;;24.50;57.07;100111.13;5147993;22;20634;-53
2022/06/10 10:25:41;;;;;;;9.17;2.87;;;;;;;24.53;58.99;100114.16;5108012;22;20401;-68
2022/06/10 10:28:23;;;;;;;4.77;2.93;;;;;;;24.52;60.47;100106.28;5107660;22;20206;-69
2022/06/10 10:31:13;;;;;;;6.70;2.70;;;;;;;24.52;59.69;100109.81;5094066;22;22401;-69
2022/06/10 10:33:40;;;;;;;5.77;2.90;;;;;;;24.53;59.84;100110.63;5110345;22;23311;-69
2022/06/10 10:36:50;;;;;;;5.07;2.80;;;;;;;24.26;61.70;100107.69;5091123;22;20208;-69
2022/06/10 10:39:39;;;;;;;3.73;2.17;;;;;;;24.33;56.12;100114.59;5093058;22;20218;-70
2022/06/10 10:42:18;;;;;;;5.83;2.50;;;;;;;24.58;57.57;100118.88;5114592;22;25786;-69
2022/06/10 10:44:51;;;;;;;4.47;2.90;;;;;;;24.58;57.70;100117.00;5114341;22;20198;-70
2022/06/10 10:47:22;;;;;;;4.23;2.83;;;;;;;24.49;60.00;100112.19;5106227;22;22076;-69
2022/06/10 10:49:55;;;;;;;2.47;2.27;;;;;;;24.43;60.54;100116.69;5142616;22;21212;-69
2022/06/10 10:52:44;;;;;;;3.17;2.80;;;;;;;23.98;61.61;100118.28;5079713;22;20212;-70
2022/06/10 10:55:11;;;;;;;5.17;2.80;;;;;;;24.04;61.94;100113.75;5102682;22;20216;-68
2022/06/10 10:57:41;;;;;;;3.90;2.33;;;;;;;24.41;61.70;100121.53;5114617;22;25619;-68
2022/06/10 11:00:10;;;;;;;4.47;2.73;;;;;;;24.50;60.41;100124.72;5093268;22;20229;-70
2022/06/10 11:02:41;;;;;;;4.37;2.80;;;;;;;24.76;59.45;100131.44;5105201;22;20198;-68
2022/06/10 11:05:23;;;;;;;4.77;2.10;;;;;;;24.44;59.72;100127.34;5095074;22;20207;-69
2022/06/10 11:08:11;;;;;;;3.10;1.97;;;;;;;24.46;58.71;100132.50;5114622;22;20209;-68
2022/06/10 11:11:15;;;;;;;4.87;2.17;;;;;;;24.21;58.90;100128.25;5105991;22;20249;-69
2022/06/10 11:13:49;;;;;;;5.30;2.30;;;;;;;24.20;58.98;100128.50;5098352;22;25374;-69
2022/06/10 11:16:29;;;;;;;4.53;2.30;;;;;;;24.05;60.57;100125.50;5133528;22;20209;-68
2022/06/10 11:19:08;;;;;;;3.07;2.27;;;;;;;23.95;61.41;100129.66;5138350;22;20202;-71
2022/06/10 11:21:55;;;;;;;3.03;2.30;;;;;;;24.31;60.07;100133.06;5101417;22;20249;-69
2022/06/10 11:24:37;;;;;;;5.20;2.40;;;;;;;24.07;60.09;100126.91;5085194;22;20198;-68
2022/06/10 11:27:23;;;;;;;3.13;2.23;;;;;;;23.94;61.47;100136.13;5112497;22;20264;-72
2022/06/10 11:30:04;;;;;;;3.90;2.40;;;;;;;23.72;61.74;100135.94;5101412;22;20209;-70
2022/06/10 11:32:39;;;;;;;4.77;2.40;;;;;;;23.83;62.01;100131.56;5123482;22;20280;-69
2022/06/10 11:35:31;;;;;;;2.77;2.30;;;;;;;23.66;61.62;100127.91;5100904;22;20218;-71
2022/06/10 11:38:01;;;;;;;3.00;2.30;;;;;;;23.88;61.17;100134.41;5105948;22;20210;-71
2022/06/10 11:40:37;;;;;;;6.50;2.40;;;;;;;23.97;60.42;100132.94;5099462;22;20298;-71
2022/06/10 11:43:25;;;;;;;2.63;2.17;;;;;;;23.58;61.83;100129.94;5097376;22;20218;-70
2022/06/10 11:45:57;;;;;;;6.53;2.57;;;;;;;23.60;63.27;100122.38;5109701;22;22935;-67
2022/06/10 11:48:58;;;;;;;6.47;2.60;;;;;;;23.77;63.72;100127.09;5113625;22;20686;-71
2022/06/10 11:51:35;;;;;;;4.70;3.23;;;;;;;23.93;62.21;100137.22;5089127;22;21190;-73
2022/06/10 11:54:26;;;;;;;3.73;3.30;;;;;;;23.58;63.55;100129.94;5092542;22;20265;-73
2022/06/10 12:00:10;;;;;;;4.33;3.20;;;;;;;23.86;62.86;100128.38;5162492;22;20348;-72
2022/06/10 12:02:49;;;;;;;6.23;3.50;;;;;;;23.96;61.21;100136.72;5176548;22;20615;-73
2022/06/10 12:05:35;;;;;;;5.30;3.50;;;;;;;23.96;61.05;100133.19;5111912;22;21723;-72
2022/06/10 12:08:13;;;;;;;6.93;3.70;;;;;;;23.86;62.18;100130.25;5106777;22;21299;-73